sensor_id;sensor_type;location;lat;lon;timestamp;P1;durP1;ratioP1;P2;durP2;ratioP2
67816;SDS011;54614;47.576;7.524;2023-08-20T00:01:19;8.43;;;6.03;;
67816;SDS011;54614;47.576;7.524;2023-08-20T00:03:50;7.95;;;6.20;;
67816;SDS011;54614;47.576;7.524;2023-08-20T00:06:17;7.80;;;6.60;;
67816;SDS011;54614;47.576;7.524;2023-08-20T00:08:45;8.32;;;6.82;;
67816;SDS011;54614;47.576;7.524;2023-08-20T00:11:11;7.40;;;6.53;;
67816;SDS011;54614;47.576;7.524;2023-08-20T00:13:38;8.90;;;6.53;;
67816;SDS011;54614;47.576;7.524;2023-08-20T00:16:05;7.00;;;6.30;;
67816;SDS011;54614;47.576;7.524;2023-08-20T00:18:31;8.18;;;6.38;;
67816;SDS011;54614;47.576;7.524;2023-08-20T00:20:58;8.18;;;6.55;;
67816;SDS011;54614;47.576;7.524;2023-08-20T00:23:25;8.88;;;6.32;;
67816;SDS011;54614;47.576;7.524;2023-08-20T00:25:51;9.30;;;6.60;;
67816;SDS011;54614;47.576;7.524;2023-08-20T00:28:19;7.88;;;6.85;;
67816;SDS011;54614;47.576;7.524;2023-08-20T00:30:45;8.80;;;6.35;;
67816;SDS011;54614;47.576;7.524;2023-08-20T00:33:11;8.25;;;6.38;;
67816;SDS011;54614;47.576;7.524;2023-08-20T00:35:38;8.55;;;6.78;;
67816;SDS011;54614;47.576;7.524;2023-08-20T00:38:04;7.57;;;6.22;;
67816;SDS011;54614;47.576;7.524;2023-08-20T00:40:30;8.57;;;6.15;;
67816;SDS011;54614;47.576;7.524;2023-08-20T00:42:57;8.70;;;6.70;;
67816;SDS011;54614;47.576;7.524;2023-08-20T00:45:23;8.90;;;6.30;;
67816;SDS011;54614;47.576;7.524;2023-08-20T00:47:51;7.68;;;6.18;;
67816;SDS011;54614;47.576;7.524;2023-08-20T00:50:18;7.15;;;6.38;;
67816;SDS011;54614;47.576;7.524;2023-08-20T00:52:45;8.07;;;6.47;;
67816;SDS011;54614;47.576;7.524;2023-08-20T00:55:12;8.13;;;6.38;;
67816;SDS011;54614;47.576;7.524;2023-08-20T00:57:38;7.00;;;6.30;;
67816;SDS011;54614;47.576;7.524;2023-08-20T01:00:05;8.02;;;6.30;;
67816;SDS011;54614;47.576;7.524;2023-08-20T01:02:34;8.43;;;6.43;;
67816;SDS011;54614;47.576;7.524;2023-08-20T01:05:00;7.85;;;6.45;;
67816;SDS011;54614;47.576;7.524;2023-08-20T01:07:33;9.18;;;6.35;;
67816;SDS011;54614;47.576;7.524;2023-08-20T01:10:09;7.90;;;6.22;;
67816;SDS011;54614;47.576;7.524;2023-08-20T01:12:43;7.97;;;6.60;;
67816;SDS011;54614;47.576;7.524;2023-08-20T01:15:10;8.10;;;6.45;;
67816;SDS011;54614;47.576;7.524;2023-08-20T01:17:39;8.68;;;6.93;;
67816;SDS011;54614;47.576;7.524;2023-08-20T01:20:06;8.15;;;6.63;;
67816;SDS011;54614;47.576;7.524;2023-08-20T01:28:29;7.65;;;6.07;;
67816;SDS011;54614;47.576;7.524;2023-08-20T01:30:56;9.93;;;6.60;;
67816;SDS011;54614;47.576;7.524;2023-08-20T01:33:24;9.80;;;6.60;;
67816;SDS011;54614;47.576;7.524;2023-08-20T01:35:51;7.28;;;6.47;;
67816;SDS011;54614;47.576;7.524;2023-08-20T01:38:18;11.20;;;7.00;;
67816;SDS011;54614;47.576;7.524;2023-08-20T01:40:44;7.45;;;6.50;;
67816;SDS011;54614;47.576;7.524;2023-08-20T01:43:11;10.27;;;7.00;;
67816;SDS011;54614;47.576;7.524;2023-08-20T01:45:37;11.27;;;7.20;;
67816;SDS011;54614;47.576;7.524;2023-08-20T01:48:04;7.57;;;6.57;;
67816;SDS011;54614;47.576;7.524;2023-08-20T01:50:30;7.22;;;6.47;;
67816;SDS011;54614;47.576;7.524;2023-08-20T01:52:58;10.00;;;6.90;;
67816;SDS011;54614;47.576;7.524;2023-08-20T01:55:24;9.52;;;7.03;;
67816;SDS011;54614;47.576;7.524;2023-08-20T01:57:50;7.93;;;6.32;;
67816;SDS011;54614;47.576;7.524;2023-08-20T02:00:16;8.95;;;6.90;;
67816;SDS011;54614;47.576;7.524;2023-08-20T02:02:42;9.10;;;6.57;;
67816;SDS011;54614;47.576;7.524;2023-08-20T02:05:08;7.38;;;6.68;;
67816;SDS011;54614;47.576;7.524;2023-08-20T02:07:35;8.18;;;6.43;;
67816;SDS011;54614;47.576;7.524;2023-08-20T02:10:01;9.32;;;7.22;;
67816;SDS011;54614;47.576;7.524;2023-08-20T02:12:28;8.95;;;6.97;;
67816;SDS011;54614;47.576;7.524;2023-08-20T02:14:53;7.85;;;6.47;;
67816;SDS011;54614;47.576;7.524;2023-08-20T02:17:19;12.25;;;7.03;;
67816;SDS011;54614;47.576;7.524;2023-08-20T02:19:45;8.32;;;6.80;;
67816;SDS011;54614;47.576;7.524;2023-08-20T02:22:11;8.15;;;6.78;;
67816;SDS011;54614;47.576;7.524;2023-08-20T02:24:36;10.43;;;6.90;;
67816;SDS011;54614;47.576;7.524;2023-08-20T02:27:02;7.55;;;6.47;;
67816;SDS011;54614;47.576;7.524;2023-08-20T02:29:28;8.55;;;6.68;;
67816;SDS011;54614;47.576;7.524;2023-08-20T02:31:54;8.95;;;6.95;;
67816;SDS011;54614;47.576;7.524;2023-08-20T02:34:22;7.03;;;6.25;;
67816;SDS011;54614;47.576;7.524;2023-08-20T02:36:48;7.28;;;5.95;;
67816;SDS011;54614;47.576;7.524;2023-08-20T02:39:14;7.85;;;7.05;;
67816;SDS011;54614;47.576;7.524;2023-08-20T02:41:41;8.43;;;6.72;;
67816;SDS011;54614;47.576;7.524;2023-08-20T02:44:08;8.13;;;6.60;;
67816;SDS011;54614;47.576;7.524;2023-08-20T02:46:34;7.35;;;6.55;;
67816;SDS011;54614;47.576;7.524;2023-08-20T02:49:00;8.30;;;6.68;;
67816;SDS011;54614;47.576;7.524;2023-08-20T02:51:27;9.18;;;6.80;;
67816;SDS011;54614;47.576;7.524;2023-08-20T02:53:53;8.55;;;6.78;;
67816;SDS011;54614;47.576;7.524;2023-08-20T02:56:19;9.18;;;6.80;;
67816;SDS011;54614;47.576;7.524;2023-08-20T02:58:45;7.70;;;6.70;;
67816;SDS011;54614;47.576;7.524;2023-08-20T03:01:24;7.60;;;6.78;;
67816;SDS011;54614;47.576;7.524;2023-08-20T03:03:51;8.48;;;6.75;;
67816;SDS011;54614;47.576;7.524;2023-08-20T03:06:17;8.85;;;6.68;;
67816;SDS011;54614;47.576;7.524;2023-08-20T03:08:43;8.23;;;6.57;;
67816;SDS011;54614;47.576;7.524;2023-08-20T03:11:10;9.38;;;7.15;;
67816;SDS011;54614;47.576;7.524;2023-08-20T03:13:36;7.00;;;6.30;;
67816;SDS011;54614;47.576;7.524;2023-08-20T03:16:01;9.30;;;6.53;;
67816;SDS011;54614;47.576;7.524;2023-08-20T03:18:28;9.02;;;6.70;;
67816;SDS011;54614;47.576;7.524;2023-08-20T03:20:55;9.07;;;6.80;;
67816;SDS011;54614;47.576;7.524;2023-08-20T03:23:21;10.30;;;6.97;;
67816;SDS011;54614;47.576;7.524;2023-08-20T03:25:48;8.95;;;6.68;;
67816;SDS011;54614;47.576;7.524;2023-08-20T03:28:14;9.30;;;7.00;;
67816;SDS011;54614;47.576;7.524;2023-08-20T03:30:42;8.80;;;6.80;;
67816;SDS011;54614;47.576;7.524;2023-08-20T03:33:08;8.88;;;7.00;;
67816;SDS011;54614;47.576;7.524;2023-08-20T03:35:34;7.78;;;6.60;;
67816;SDS011;54614;47.576;7.524;2023-08-20T03:37:59;11.90;;;7.50;;
67816;SDS011;54614;47.576;7.524;2023-08-20T03:40:27;8.02;;;7.07;;
67816;SDS011;54614;47.576;7.524;2023-08-20T03:42:53;8.73;;;6.80;;
67816;SDS011;54614;47.576;7.524;2023-08-20T03:45:19;9.07;;;7.07;;
67816;SDS011;54614;47.576;7.524;2023-08-20T03:47:44;10.75;;;7.05;;
67816;SDS011;54614;47.576;7.524;2023-08-20T03:50:12;9.32;;;6.85;;
67816;SDS011;54614;47.576;7.524;2023-08-20T03:52:37;9.07;;;7.15;;
67816;SDS011;54614;47.576;7.524;2023-08-20T03:55:05;7.78;;;6.45;;
67816;SDS011;54614;47.576;7.524;2023-08-20T03:57:31;8.43;;;6.60;;
67816;SDS011;54614;47.576;7.524;2023-08-20T03:59:57;8.48;;;6.80;;
67816;SDS011;54614;47.576;7.524;2023-08-20T04:02:23;10.10;;;6.32;;
67816;SDS011;54614;47.576;7.524;2023-08-20T04:04:49;10.13;;;6.95;;
67816;SDS011;54614;47.576;7.524;2023-08-20T04:07:15;8.90;;;6.93;;
67816;SDS011;54614;47.576;7.524;2023-08-20T04:09:41;7.43;;;6.43;;
67816;SDS011;54614;47.576;7.524;2023-08-20T04:12:07;9.32;;;6.88;;
67816;SDS011;54614;47.576;7.524;2023-08-20T04:14:33;8.05;;;6.97;;
67816;SDS011;54614;47.576;7.524;2023-08-20T04:16:59;10.00;;;7.20;;
67816;SDS011;54614;47.576;7.524;2023-08-20T04:19:25;8.82;;;7.28;;
67816;SDS011;54614;47.576;7.524;2023-08-20T04:21:51;8.45;;;7.00;;
67816;SDS011;54614;47.576;7.524;2023-08-20T04:24:16;8.32;;;7.10;;
67816;SDS011;54614;47.576;7.524;2023-08-20T04:26:42;8.43;;;7.13;;
67816;SDS011;54614;47.576;7.524;2023-08-20T04:29:08;8.52;;;7.03;;
67816;SDS011;54614;47.576;7.524;2023-08-20T04:31:34;9.05;;;7.10;;
67816;SDS011;54614;47.576;7.524;2023-08-20T04:34:00;9.40;;;7.00;;
67816;SDS011;54614;47.576;7.524;2023-08-20T04:36:26;7.65;;;6.68;;
67816;SDS011;54614;47.576;7.524;2023-08-20T04:38:52;8.38;;;7.10;;
67816;SDS011;54614;47.576;7.524;2023-08-20T04:41:18;10.27;;;7.25;;
67816;SDS011;54614;47.576;7.524;2023-08-20T04:43:43;10.38;;;7.13;;
67816;SDS011;54614;47.576;7.524;2023-08-20T04:46:09;8.07;;;6.80;;
67816;SDS011;54614;47.576;7.524;2023-08-20T04:48:35;7.60;;;6.70;;
67816;SDS011;54614;47.576;7.524;2023-08-20T04:51:00;10.40;;;7.07;;
67816;SDS011;54614;47.576;7.524;2023-08-20T04:53:26;8.57;;;7.07;;
67816;SDS011;54614;47.576;7.524;2023-08-20T04:55:52;7.65;;;6.82;;
67816;SDS011;54614;47.576;7.524;2023-08-20T04:58:18;8.63;;;6.68;;
67816;SDS011;54614;47.576;7.524;2023-08-20T05:00:44;9.13;;;7.13;;
67816;SDS011;54614;47.576;7.524;2023-08-20T05:03:11;8.80;;;6.93;;
67816;SDS011;54614;47.576;7.524;2023-08-20T05:05:37;9.93;;;6.55;;
67816;SDS011;54614;47.576;7.524;2023-08-20T05:08:03;12.00;;;7.30;;
67816;SDS011;54614;47.576;7.524;2023-08-20T05:10:29;9.13;;;7.18;;
67816;SDS011;54614;47.576;7.524;2023-08-20T05:12:55;8.02;;;7.07;;
67816;SDS011;54614;47.576;7.524;2023-08-20T05:15:21;8.65;;;6.85;;
67816;SDS011;54614;47.576;7.524;2023-08-20T05:17:47;9.18;;;7.47;;
67816;SDS011;54614;47.576;7.524;2023-08-20T05:20:13;8.30;;;6.80;;
67816;SDS011;54614;47.576;7.524;2023-08-20T05:22:40;8.13;;;7.30;;
67816;SDS011;54614;47.576;7.524;2023-08-20T05:25:06;8.25;;;7.35;;
67816;SDS011;54614;47.576;7.524;2023-08-20T05:27:34;8.05;;;7.07;;
67816;SDS011;54614;47.576;7.524;2023-08-20T05:30:00;8.45;;;7.38;;
67816;SDS011;54614;47.576;7.524;2023-08-20T05:32:26;10.30;;;7.38;;
67816;SDS011;54614;47.576;7.524;2023-08-20T05:34:51;9.13;;;7.32;;
67816;SDS011;54614;47.576;7.524;2023-08-20T05:37:17;8.90;;;7.00;;
67816;SDS011;54614;47.576;7.524;2023-08-20T05:39:43;10.43;;;7.60;;
67816;SDS011;54614;47.576;7.524;2023-08-20T05:42:09;10.30;;;7.85;;
67816;SDS011;54614;47.576;7.524;2023-08-20T05:44:36;8.68;;;7.38;;
67816;SDS011;54614;47.576;7.524;2023-08-20T05:47:02;9.27;;;7.53;;
67816;SDS011;54614;47.576;7.524;2023-08-20T05:49:28;10.80;;;7.82;;
67816;SDS011;54614;47.576;7.524;2023-08-20T05:51:53;9.15;;;7.78;;
67816;SDS011;54614;47.576;7.524;2023-08-20T05:54:20;10.65;;;7.95;;
67816;SDS011;54614;47.576;7.524;2023-08-20T05:56:46;10.05;;;7.90;;
67816;SDS011;54614;47.576;7.524;2023-08-20T05:59:12;12.43;;;8.73;;
67816;SDS011;54614;47.576;7.524;2023-08-20T06:01:38;14.02;;;8.32;;
67816;SDS011;54614;47.576;7.524;2023-08-20T06:04:04;13.55;;;9.00;;
67816;SDS011;54614;47.576;7.524;2023-08-20T06:06:30;11.75;;;8.43;;
67816;SDS011;54614;47.576;7.524;2023-08-20T06:08:56;13.55;;;8.90;;
67816;SDS011;54614;47.576;7.524;2023-08-20T06:11:22;15.45;;;9.00;;
67816;SDS011;54614;47.576;7.524;2023-08-20T06:13:48;12.27;;;8.57;;
67816;SDS011;54614;47.576;7.524;2023-08-20T06:16:15;14.20;;;9.02;;
67816;SDS011;54614;47.576;7.524;2023-08-20T06:18:41;12.43;;;8.70;;
67816;SDS011;54614;47.576;7.524;2023-08-20T06:21:06;13.02;;;9.07;;
67816;SDS011;54614;47.576;7.524;2023-08-20T06:23:32;18.58;;;9.48;;
67816;SDS011;54614;47.576;7.524;2023-08-20T06:25:58;15.88;;;8.85;;
67816;SDS011;54614;47.576;7.524;2023-08-20T06:28:24;13.65;;;9.15;;
67816;SDS011;54614;47.576;7.524;2023-08-20T06:30:49;13.82;;;9.10;;
67816;SDS011;54614;47.576;7.524;2023-08-20T06:33:15;11.75;;;9.15;;
67816;SDS011;54614;47.576;7.524;2023-08-20T06:35:41;11.65;;;8.68;;
67816;SDS011;54614;47.576;7.524;2023-08-20T06:38:07;14.98;;;9.43;;
67816;SDS011;54614;47.576;7.524;2023-08-20T06:40:33;14.35;;;9.45;;
67816;SDS011;54614;47.576;7.524;2023-08-20T06:42:59;16.33;;;10.15;;
67816;SDS011;54614;47.576;7.524;2023-08-20T06:45:24;15.88;;;10.30;;
67816;SDS011;54614;47.576;7.524;2023-08-20T06:47:50;14.48;;;10.05;;
67816;SDS011;54614;47.576;7.524;2023-08-20T06:50:16;15.90;;;9.65;;
67816;SDS011;54614;47.576;7.524;2023-08-20T06:52:42;16.60;;;10.32;;
67816;SDS011;54614;47.576;7.524;2023-08-20T06:55:08;15.80;;;10.05;;
67816;SDS011;54614;47.576;7.524;2023-08-20T06:57:34;15.05;;;9.32;;
67816;SDS011;54614;47.576;7.524;2023-08-20T07:00:00;14.95;;;9.27;;
67816;SDS011;54614;47.576;7.524;2023-08-20T07:02:26;12.68;;;9.07;;
67816;SDS011;54614;47.576;7.524;2023-08-20T07:04:51;12.18;;;9.85;;
67816;SDS011;54614;47.576;7.524;2023-08-20T07:07:17;13.15;;;9.40;;
67816;SDS011;54614;47.576;7.524;2023-08-20T07:09:43;11.93;;;9.13;;
67816;SDS011;54614;47.576;7.524;2023-08-20T07:12:08;19.15;;;9.73;;
67816;SDS011;54614;47.576;7.524;2023-08-20T07:14:34;16.15;;;10.35;;
67816;SDS011;54614;47.576;7.524;2023-08-20T07:17:00;17.52;;;10.50;;
67816;SDS011;54614;47.576;7.524;2023-08-20T07:19:27;18.55;;;9.88;;
67816;SDS011;54614;47.576;7.524;2023-08-20T07:21:54;17.58;;;10.68;;
67816;SDS011;54614;47.576;7.524;2023-08-20T07:24:20;16.83;;;9.82;;
67816;SDS011;54614;47.576;7.524;2023-08-20T07:26:50;15.48;;;9.10;;
67816;SDS011;54614;47.576;7.524;2023-08-20T07:29:24;16.23;;;10.05;;
67816;SDS011;54614;47.576;7.524;2023-08-20T07:31:50;15.15;;;9.63;;
67816;SDS011;54614;47.576;7.524;2023-08-20T07:34:16;18.13;;;9.48;;
67816;SDS011;54614;47.576;7.524;2023-08-20T07:36:42;15.48;;;9.45;;
67816;SDS011;54614;47.576;7.524;2023-08-20T07:39:08;14.20;;;9.38;;
67816;SDS011;54614;47.576;7.524;2023-08-20T07:41:33;17.23;;;9.82;;
67816;SDS011;54614;47.576;7.524;2023-08-20T07:43:59;15.75;;;8.85;;
67816;SDS011;54614;47.576;7.524;2023-08-20T07:46:25;20.33;;;9.27;;
67816;SDS011;54614;47.576;7.524;2023-08-20T07:48:51;19.00;;;8.85;;
67816;SDS011;54614;47.576;7.524;2023-08-20T07:51:17;14.10;;;8.77;;
67816;SDS011;54614;47.576;7.524;2023-08-20T07:53:43;15.70;;;8.95;;
67816;SDS011;54614;47.576;7.524;2023-08-20T07:56:08;15.05;;;8.77;;
67816;SDS011;54614;47.576;7.524;2023-08-20T07:58:34;12.48;;;8.30;;
67816;SDS011;54614;47.576;7.524;2023-08-20T08:01:00;14.35;;;8.20;;
67816;SDS011;54614;47.576;7.524;2023-08-20T08:03:26;19.50;;;8.82;;
67816;SDS011;54614;47.576;7.524;2023-08-20T08:05:52;23.45;;;8.82;;
67816;SDS011;54614;47.576;7.524;2023-08-20T08:08:19;15.43;;;8.38;;
67816;SDS011;54614;47.576;7.524;2023-08-20T08:10:46;17.55;;;8.55;;
67816;SDS011;54614;47.576;7.524;2023-08-20T08:13:12;14.20;;;8.18;;
67816;SDS011;54614;47.576;7.524;2023-08-20T08:15:44;18.90;;;8.18;;
67816;SDS011;54614;47.576;7.524;2023-08-20T08:18:11;13.18;;;7.60;;
67816;SDS011;54614;47.576;7.524;2023-08-20T08:20:37;12.52;;;7.70;;
67816;SDS011;54614;47.576;7.524;2023-08-20T08:23:04;17.63;;;7.85;;
67816;SDS011;54614;47.576;7.524;2023-08-20T08:25:30;14.68;;;7.68;;
67816;SDS011;54614;47.576;7.524;2023-08-20T08:27:56;13.82;;;7.60;;
67816;SDS011;54614;47.576;7.524;2023-08-20T08:30:22;15.85;;;7.40;;
67816;SDS011;54614;47.576;7.524;2023-08-20T08:32:49;11.88;;;7.60;;
67816;SDS011;54614;47.576;7.524;2023-08-20T08:35:16;12.82;;;7.40;;
67816;SDS011;54614;47.576;7.524;2023-08-20T08:37:42;19.00;;;8.10;;
67816;SDS011;54614;47.576;7.524;2023-08-20T08:40:08;13.90;;;8.00;;
67816;SDS011;54614;47.576;7.524;2023-08-20T08:42:35;14.35;;;7.97;;
67816;SDS011;54614;47.576;7.524;2023-08-20T08:45:01;15.98;;;7.35;;
67816;SDS011;54614;47.576;7.524;2023-08-20T08:47:29;11.48;;;7.40;;
67816;SDS011;54614;47.576;7.524;2023-08-20T08:49:55;18.63;;;7.45;;
67816;SDS011;54614;47.576;7.524;2023-08-20T08:52:24;12.77;;;7.28;;
67816;SDS011;54614;47.576;7.524;2023-08-20T08:54:51;18.67;;;7.22;;
67816;SDS011;54614;47.576;7.524;2023-08-20T08:57:18;11.57;;;7.25;;
67816;SDS011;54614;47.576;7.524;2023-08-20T08:59:44;11.00;;;7.40;;
67816;SDS011;54614;47.576;7.524;2023-08-20T09:02:11;11.85;;;7.43;;
67816;SDS011;54614;47.576;7.524;2023-08-20T09:04:41;12.25;;;8.25;;
67816;SDS011;54614;47.576;7.524;2023-08-20T09:07:14;12.52;;;7.20;;
67816;SDS011;54614;47.576;7.524;2023-08-20T09:09:44;18.48;;;7.25;;
67816;SDS011;54614;47.576;7.524;2023-08-20T09:12:17;15.32;;;7.30;;
67816;SDS011;54614;47.576;7.524;2023-08-20T09:14:51;14.20;;;7.22;;
67816;SDS011;54614;47.576;7.524;2023-08-20T09:17:17;14.50;;;7.40;;
67816;SDS011;54614;47.576;7.524;2023-08-20T09:19:47;12.55;;;7.35;;
67816;SDS011;54614;47.576;7.524;2023-08-20T09:22:13;15.40;;;7.53;;
67816;SDS011;54614;47.576;7.524;2023-08-20T09:24:41;11.35;;;7.25;;
67816;SDS011;54614;47.576;7.524;2023-08-20T09:27:10;10.60;;;6.80;;
67816;SDS011;54614;47.576;7.524;2023-08-20T09:29:46;34.40;;;7.60;;
67816;SDS011;54614;47.576;7.524;2023-08-20T09:32:15;18.45;;;7.70;;
67816;SDS011;54614;47.576;7.524;2023-08-20T09:34:44;22.98;;;7.88;;
67816;SDS011;54614;47.576;7.524;2023-08-20T09:37:12;18.17;;;7.50;;
67816;SDS011;54614;47.576;7.524;2023-08-20T09:39:40;12.30;;;7.60;;
67816;SDS011;54614;47.576;7.524;2023-08-20T09:42:08;20.73;;;7.05;;
67816;SDS011;54614;47.576;7.524;2023-08-20T09:44:35;14.90;;;7.60;;
67816;SDS011;54614;47.576;7.524;2023-08-20T09:47:05;17.90;;;7.22;;
67816;SDS011;54614;47.576;7.524;2023-08-20T09:49:36;14.63;;;7.32;;
67816;SDS011;54614;47.576;7.524;2023-08-20T09:52:07;14.82;;;6.88;;
67816;SDS011;54614;47.576;7.524;2023-08-20T09:54:36;12.75;;;7.20;;
67816;SDS011;54614;47.576;7.524;2023-08-20T09:57:25;18.40;;;7.55;;
67816;SDS011;54614;47.576;7.524;2023-08-20T10:00:03;12.52;;;7.20;;
67816;SDS011;54614;47.576;7.524;2023-08-20T10:02:36;14.30;;;7.32;;
67816;SDS011;54614;47.576;7.524;2023-08-20T10:05:05;12.50;;;7.07;;
67816;SDS011;54614;47.576;7.524;2023-08-20T10:07:32;15.43;;;6.80;;
67816;SDS011;54614;47.576;7.524;2023-08-20T10:10:00;15.48;;;6.93;;
67816;SDS011;54614;47.576;7.524;2023-08-20T10:12:29;14.88;;;7.13;;
67816;SDS011;54614;47.576;7.524;2023-08-20T10:14:56;12.57;;;6.80;;
67816;SDS011;54614;47.576;7.524;2023-08-20T10:17:29;11.68;;;6.88;;
67816;SDS011;54614;47.576;7.524;2023-08-20T10:19:58;10.73;;;6.80;;
67816;SDS011;54614;47.576;7.524;2023-08-20T10:22:35;13.85;;;6.93;;
67816;SDS011;54614;47.576;7.524;2023-08-20T10:25:07;13.05;;;6.60;;
67816;SDS011;54614;47.576;7.524;2023-08-20T10:27:54;10.77;;;6.90;;
67816;SDS011;54614;47.576;7.524;2023-08-20T10:30:36;10.15;;;6.78;;
67816;SDS011;54614;47.576;7.524;2023-08-20T10:33:03;10.95;;;6.93;;
67816;SDS011;54614;47.576;7.524;2023-08-20T10:35:46;9.00;;;6.47;;
67816;SDS011;54614;47.576;7.524;2023-08-20T10:38:13;13.55;;;6.90;;
67816;SDS011;54614;47.576;7.524;2023-08-20T10:43:26;9.13;;;6.22;;
67816;SDS011;54614;47.576;7.524;2023-08-20T10:46:13;10.73;;;6.47;;
67816;SDS011;54614;47.576;7.524;2023-08-20T10:48:43;12.63;;;6.53;;
67816;SDS011;54614;47.576;7.524;2023-08-20T10:56:47;8.13;;;6.68;;
67816;SDS011;54614;47.576;7.524;2023-08-20T10:59:14;12.40;;;6.95;;
67816;SDS011;54614;47.576;7.524;2023-08-20T11:01:52;9.27;;;6.35;;
67816;SDS011;54614;47.576;7.524;2023-08-20T11:04:21;8.77;;;6.57;;
67816;SDS011;54614;47.576;7.524;2023-08-20T11:06:49;10.45;;;6.40;;
67816;SDS011;54614;47.576;7.524;2023-08-20T11:09:21;7.75;;;5.88;;
67816;SDS011;54614;47.576;7.524;2023-08-20T11:11:48;7.78;;;6.30;;
67816;SDS011;54614;47.576;7.524;2023-08-20T11:14:14;9.65;;;6.43;;
67816;SDS011;54614;47.576;7.524;2023-08-20T11:16:44;10.45;;;6.32;;
67816;SDS011;54614;47.576;7.524;2023-08-20T11:19:11;8.05;;;6.60;;
67816;SDS011;54614;47.576;7.524;2023-08-20T11:21:39;9.70;;;6.40;;
67816;SDS011;54614;47.576;7.524;2023-08-20T11:24:09;10.15;;;6.32;;
67816;SDS011;54614;47.576;7.524;2023-08-20T11:26:37;8.82;;;6.38;;
67816;SDS011;54614;47.576;7.524;2023-08-20T11:29:06;7.95;;;6.20;;
67816;SDS011;54614;47.576;7.524;2023-08-20T11:31:42;8.00;;;6.55;;
67816;SDS011;54614;47.576;7.524;2023-08-20T11:34:08;10.45;;;6.25;;
67816;SDS011;54614;47.576;7.524;2023-08-20T11:36:34;10.27;;;6.38;;
67816;SDS011;54614;47.576;7.524;2023-08-20T11:39:00;10.00;;;6.32;;
67816;SDS011;54614;47.576;7.524;2023-08-20T11:41:26;9.43;;;5.97;;
67816;SDS011;54614;47.576;7.524;2023-08-20T11:43:53;13.75;;;6.50;;
67816;SDS011;54614;47.576;7.524;2023-08-20T11:46:19;8.90;;;6.10;;
67816;SDS011;54614;47.576;7.524;2023-08-20T11:49:09;10.52;;;6.50;;
67816;SDS011;54614;47.576;7.524;2023-08-20T11:51:35;8.45;;;6.13;;
67816;SDS011;54614;47.576;7.524;2023-08-20T11:54:04;8.82;;;5.95;;
67816;SDS011;54614;47.576;7.524;2023-08-20T11:56:47;6.57;;;5.70;;
67816;SDS011;54614;47.576;7.524;2023-08-20T11:59:18;9.20;;;5.90;;
67816;SDS011;54614;47.576;7.524;2023-08-20T12:01:56;7.65;;;5.80;;
67816;SDS011;54614;47.576;7.524;2023-08-20T12:04:25;6.55;;;5.85;;
67816;SDS011;54614;47.576;7.524;2023-08-20T12:09:33;8.30;;;6.32;;
67816;SDS011;54614;47.576;7.524;2023-08-20T12:11:59;8.80;;;6.32;;
67816;SDS011;54614;47.576;7.524;2023-08-20T12:14:26;7.45;;;5.60;;
67816;SDS011;54614;47.576;7.524;2023-08-20T12:16:55;7.13;;;5.78;;
67816;SDS011;54614;47.576;7.524;2023-08-20T12:19:22;8.15;;;5.97;;
67816;SDS011;54614;47.576;7.524;2023-08-20T12:21:49;8.50;;;5.72;;
67816;SDS011;54614;47.576;7.524;2023-08-20T12:24:16;8.10;;;5.90;;
67816;SDS011;54614;47.576;7.524;2023-08-20T12:26:44;7.80;;;5.97;;
67816;SDS011;54614;47.576;7.524;2023-08-20T12:29:10;7.70;;;6.25;;
67816;SDS011;54614;47.576;7.524;2023-08-20T12:31:37;7.85;;;5.57;;
67816;SDS011;54614;47.576;7.524;2023-08-20T12:34:04;7.85;;;5.90;;
67816;SDS011;54614;47.576;7.524;2023-08-20T12:36:31;7.30;;;6.05;;
67816;SDS011;54614;47.576;7.524;2023-08-20T12:38:57;8.52;;;6.05;;
67816;SDS011;54614;47.576;7.524;2023-08-20T12:41:23;7.95;;;6.35;;
67816;SDS011;54614;47.576;7.524;2023-08-20T12:43:49;8.27;;;6.03;;
67816;SDS011;54614;47.576;7.524;2023-08-20T12:46:16;8.23;;;6.25;;
67816;SDS011;54614;47.576;7.524;2023-08-20T12:48:42;6.82;;;5.60;;
67816;SDS011;54614;47.576;7.524;2023-08-20T12:51:09;7.03;;;6.00;;
67816;SDS011;54614;47.576;7.524;2023-08-20T12:53:38;8.98;;;5.65;;
67816;SDS011;54614;47.576;7.524;2023-08-20T12:56:05;7.78;;;6.10;;
67816;SDS011;54614;47.576;7.524;2023-08-20T12:58:31;8.98;;;5.53;;
67816;SDS011;54614;47.576;7.524;2023-08-20T13:00:57;8.35;;;5.85;;
67816;SDS011;54614;47.576;7.524;2023-08-20T13:03:24;6.18;;;5.57;;
67816;SDS011;54614;47.576;7.524;2023-08-20T13:05:50;6.20;;;5.60;;
67816;SDS011;54614;47.576;7.524;2023-08-20T13:08:16;7.13;;;5.72;;
67816;SDS011;54614;47.576;7.524;2023-08-20T13:10:44;6.50;;;5.75;;
67816;SDS011;54614;47.576;7.524;2023-08-20T13:13:17;5.80;;;5.20;;
67816;SDS011;54614;47.576;7.524;2023-08-20T13:15:47;9.85;;;5.28;;
67816;SDS011;54614;47.576;7.524;2023-08-20T13:18:17;7.40;;;5.90;;
67816;SDS011;54614;47.576;7.524;2023-08-20T13:20:43;6.75;;;5.55;;
67816;SDS011;54614;47.576;7.524;2023-08-20T13:23:09;6.00;;;5.35;;
67816;SDS011;54614;47.576;7.524;2023-08-20T13:25:36;6.10;;;5.50;;
67816;SDS011;54614;47.576;7.524;2023-08-20T13:28:02;7.60;;;5.78;;
67816;SDS011;54614;47.576;7.524;2023-08-20T13:30:28;6.93;;;5.47;;
67816;SDS011;54614;47.576;7.524;2023-08-20T13:32:54;6.28;;;5.68;;
67816;SDS011;54614;47.576;7.524;2023-08-20T13:35:21;7.65;;;5.57;;
67816;SDS011;54614;47.576;7.524;2023-08-20T13:37:47;8.82;;;5.70;;
67816;SDS011;54614;47.576;7.524;2023-08-20T13:40:14;6.28;;;5.60;;
67816;SDS011;54614;47.576;7.524;2023-08-20T13:42:40;6.25;;;5.18;;
67816;SDS011;54614;47.576;7.524;2023-08-20T13:45:06;6.00;;;5.38;;
67816;SDS011;54614;47.576;7.524;2023-08-20T13:47:33;8.00;;;5.70;;
67816;SDS011;54614;47.576;7.524;2023-08-20T13:49:59;6.50;;;5.40;;
67816;SDS011;54614;47.576;7.524;2023-08-20T13:52:25;6.18;;;5.55;;
67816;SDS011;54614;47.576;7.524;2023-08-20T13:54:51;5.88;;;5.25;;
67816;SDS011;54614;47.576;7.524;2023-08-20T13:57:17;6.35;;;5.43;;
67816;SDS011;54614;47.576;7.524;2023-08-20T13:59:43;6.65;;;4.95;;
67816;SDS011;54614;47.576;7.524;2023-08-20T14:02:10;8.50;;;5.20;;
67816;SDS011;54614;47.576;7.524;2023-08-20T14:04:37;5.93;;;5.28;;
67816;SDS011;54614;47.576;7.524;2023-08-20T14:07:03;7.13;;;5.20;;
67816;SDS011;54614;47.576;7.524;2023-08-20T14:09:29;6.35;;;5.28;;
67816;SDS011;54614;47.576;7.524;2023-08-20T14:11:55;7.40;;;5.53;;
67816;SDS011;54614;47.576;7.524;2023-08-20T14:14:21;5.90;;;5.30;;
67816;SDS011;54614;47.576;7.524;2023-08-20T14:16:48;6.97;;;5.30;;
67816;SDS011;54614;47.576;7.524;2023-08-20T14:19:14;6.03;;;5.10;;
67816;SDS011;54614;47.576;7.524;2023-08-20T14:21:40;6.78;;;5.28;;
67816;SDS011;54614;47.576;7.524;2023-08-20T14:24:06;7.00;;;5.30;;
67816;SDS011;54614;47.576;7.524;2023-08-20T14:26:32;6.15;;;5.38;;
67816;SDS011;54614;47.576;7.524;2023-08-20T14:28:58;6.03;;;4.82;;
67816;SDS011;54614;47.576;7.524;2023-08-20T14:31:24;5.88;;;4.90;;
67816;SDS011;54614;47.576;7.524;2023-08-20T14:33:51;5.93;;;5.22;;
67816;SDS011;54614;47.576;7.524;2023-08-20T14:36:17;6.20;;;5.25;;
67816;SDS011;54614;47.576;7.524;2023-08-20T14:38:43;7.30;;;5.38;;
67816;SDS011;54614;47.576;7.524;2023-08-20T14:41:09;5.50;;;5.00;;
67816;SDS011;54614;47.576;7.524;2023-08-20T14:43:35;6.88;;;5.30;;
67816;SDS011;54614;47.576;7.524;2023-08-20T14:46:01;6.00;;;5.35;;
67816;SDS011;54614;47.576;7.524;2023-08-20T14:48:27;5.57;;;5.07;;
67816;SDS011;54614;47.576;7.524;2023-08-20T14:50:54;6.00;;;5.25;;
67816;SDS011;54614;47.576;7.524;2023-08-20T14:53:20;5.72;;;5.13;;
67816;SDS011;54614;47.576;7.524;2023-08-20T14:55:46;6.05;;;5.15;;
67816;SDS011;54614;47.576;7.524;2023-08-20T14:58:12;5.60;;;4.95;;
67816;SDS011;54614;47.576;7.524;2023-08-20T15:00:38;5.85;;;5.25;;